sensor_id;sensor_type;location;lat;lon;timestamp;P1;durP1;ratioP1;P2;durP2;ratioP2
68196;SDS011;55019;49.382;11.358;2023-06-04T00:01:55;1.98;;;0.65;;
68196;SDS011;55019;49.382;11.358;2023-06-04T00:04:21;1.15;;;0.57;;
68196;SDS011;55019;49.382;11.358;2023-06-04T00:06:48;1.23;;;0.55;;
68196;SDS011;55019;49.382;11.358;2023-06-04T00:09:14;1.70;;;0.60;;
68196;SDS011;55019;49.382;11.358;2023-06-04T00:11:40;0.80;;;0.57;;
68196;SDS011;55019;49.382;11.358;2023-06-04T00:14:06;1.88;;;0.60;;
68196;SDS011;55019;49.382;11.358;2023-06-04T00:16:31;0.73;;;0.60;;
68196;SDS011;55019;49.382;11.358;2023-06-04T00:18:57;1.25;;;0.50;;
68196;SDS011;55019;49.382;11.358;2023-06-04T00:21:23;1.80;;;0.80;;
68196;SDS011;55019;49.382;11.358;2023-06-04T00:23:48;2.38;;;0.60;;
68196;SDS011;55019;49.382;11.358;2023-06-04T00:26:14;0.95;;;0.60;;
68196;SDS011;55019;49.382;11.358;2023-06-04T00:28:43;0.82;;;0.40;;
68196;SDS011;55019;49.382;11.358;2023-06-04T00:31:09;1.92;;;0.60;;
68196;SDS011;55019;49.382;11.358;2023-06-04T00:33:35;1.52;;;0.70;;
68196;SDS011;55019;49.382;11.358;2023-06-04T00:36:01;1.02;;;0.70;;
68196;SDS011;55019;49.382;11.358;2023-06-04T00:38:28;7.65;;;0.65;;
68196;SDS011;55019;49.382;11.358;2023-06-04T00:40:53;1.67;;;0.55;;
68196;SDS011;55019;49.382;11.358;2023-06-04T00:43:19;0.73;;;0.40;;
68196;SDS011;55019;49.382;11.358;2023-06-04T00:45:45;1.00;;;0.68;;
68196;SDS011;55019;49.382;11.358;2023-06-04T00:48:10;2.90;;;0.77;;
68196;SDS011;55019;49.382;11.358;2023-06-04T00:50:36;1.27;;;0.40;;
68196;SDS011;55019;49.382;11.358;2023-06-04T00:53:04;1.23;;;0.70;;
68196;SDS011;55019;49.382;11.358;2023-06-04T00:55:30;0.73;;;0.50;;
68196;SDS011;55019;49.382;11.358;2023-06-04T00:57:56;1.00;;;0.47;;
68196;SDS011;55019;49.382;11.358;2023-06-04T01:00:22;1.70;;;0.65;;
68196;SDS011;55019;49.382;11.358;2023-06-04T01:05:40;1.38;;;0.55;;
68196;SDS011;55019;49.382;11.358;2023-06-04T01:08:11;1.23;;;0.60;;
68196;SDS011;55019;49.382;11.358;2023-06-04T01:10:49;1.88;;;0.60;;
68196;SDS011;55019;49.382;11.358;2023-06-04T01:13:18;1.48;;;0.80;;
68196;SDS011;55019;49.382;11.358;2023-06-04T01:15:44;0.82;;;0.40;;
68196;SDS011;55019;49.382;11.358;2023-06-04T01:18:10;2.17;;;0.60;;
68196;SDS011;55019;49.382;11.358;2023-06-04T01:20:49;0.80;;;0.50;;
68196;SDS011;55019;49.382;11.358;2023-06-04T01:25:58;0.52;;;0.50;;
68196;SDS011;55019;49.382;11.358;2023-06-04T01:28:28;2.47;;;0.57;;
68196;SDS011;55019;49.382;11.358;2023-06-04T01:30:54;0.88;;;0.40;;
68196;SDS011;55019;49.382;11.358;2023-06-04T01:33:22;2.45;;;0.63;;
68196;SDS011;55019;49.382;11.358;2023-06-04T01:35:48;1.35;;;0.60;;
68196;SDS011;55019;49.382;11.358;2023-06-04T01:38:15;1.52;;;0.88;;
68196;SDS011;55019;49.382;11.358;2023-06-04T01:40:40;0.90;;;0.32;;
68196;SDS011;55019;49.382;11.358;2023-06-04T01:43:07;1.90;;;0.68;;
68196;SDS011;55019;49.382;11.358;2023-06-04T01:45:33;1.10;;;0.50;;
68196;SDS011;55019;49.382;11.358;2023-06-04T01:48:00;0.70;;;0.70;;
68196;SDS011;55019;49.382;11.358;2023-06-04T01:50:26;2.33;;;0.77;;
68196;SDS011;55019;49.382;11.358;2023-06-04T01:52:52;2.22;;;0.60;;
68196;SDS011;55019;49.382;11.358;2023-06-04T01:55:18;1.85;;;0.75;;
68196;SDS011;55019;49.382;11.358;2023-06-04T01:57:45;1.80;;;0.60;;
68196;SDS011;55019;49.382;11.358;2023-06-04T02:00:12;0.80;;;0.55;;
68196;SDS011;55019;49.382;11.358;2023-06-04T02:02:43;1.52;;;0.47;;
68196;SDS011;55019;49.382;11.358;2023-06-04T02:05:11;0.60;;;0.40;;
68196;SDS011;55019;49.382;11.358;2023-06-04T02:07:38;1.35;;;0.57;;
68196;SDS011;55019;49.382;11.358;2023-06-04T02:10:06;1.48;;;0.75;;
68196;SDS011;55019;49.382;11.358;2023-06-04T02:12:32;0.70;;;0.45;;
68196;SDS011;55019;49.382;11.358;2023-06-04T02:14:58;2.72;;;0.50;;
68196;SDS011;55019;49.382;11.358;2023-06-04T02:17:23;1.48;;;0.68;;
68196;SDS011;55019;49.382;11.358;2023-06-04T02:19:50;2.03;;;1.15;;
68196;SDS011;55019;49.382;11.358;2023-06-04T02:22:17;1.58;;;0.82;;
68196;SDS011;55019;49.382;11.358;2023-06-04T02:24:43;1.25;;;0.50;;
68196;SDS011;55019;49.382;11.358;2023-06-04T02:27:09;1.42;;;0.88;;
68196;SDS011;55019;49.382;11.358;2023-06-04T02:29:36;1.67;;;0.50;;
68196;SDS011;55019;49.382;11.358;2023-06-04T02:32:03;0.75;;;0.68;;
68196;SDS011;55019;49.382;11.358;2023-06-04T02:34:30;0.90;;;0.55;;
68196;SDS011;55019;49.382;11.358;2023-06-04T02:36:55;0.88;;;0.52;;
68196;SDS011;55019;49.382;11.358;2023-06-04T02:39:22;1.10;;;0.50;;
68196;SDS011;55019;49.382;11.358;2023-06-04T02:41:47;2.72;;;0.63;;
68196;SDS011;55019;49.382;11.358;2023-06-04T02:44:13;1.08;;;0.40;;
68196;SDS011;55019;49.382;11.358;2023-06-04T02:46:39;1.42;;;0.77;;
68196;SDS011;55019;49.382;11.358;2023-06-04T02:49:05;0.80;;;0.55;;
68196;SDS011;55019;49.382;11.358;2023-06-04T02:51:31;1.77;;;0.60;;
68196;SDS011;55019;49.382;11.358;2023-06-04T02:53:57;1.30;;;0.45;;
68196;SDS011;55019;49.382;11.358;2023-06-04T02:56:23;1.75;;;0.65;;
68196;SDS011;55019;49.382;11.358;2023-06-04T02:58:51;1.67;;;0.50;;
68196;SDS011;55019;49.382;11.358;2023-06-04T03:01:23;2.08;;;0.65;;
68196;SDS011;55019;49.382;11.358;2023-06-04T03:03:50;1.88;;;0.50;;
68196;SDS011;55019;49.382;11.358;2023-06-04T03:06:17;2.45;;;0.95;;
68196;SDS011;55019;49.382;11.358;2023-06-04T03:08:45;0.70;;;0.45;;
68196;SDS011;55019;49.382;11.358;2023-06-04T03:11:11;1.13;;;0.38;;
68196;SDS011;55019;49.382;11.358;2023-06-04T03:13:38;1.33;;;0.70;;
68196;SDS011;55019;49.382;11.358;2023-06-04T03:16:04;1.67;;;0.60;;
68196;SDS011;55019;49.382;11.358;2023-06-04T03:18:39;1.50;;;0.80;;
68196;SDS011;55019;49.382;11.358;2023-06-04T03:21:06;1.95;;;0.80;;
68196;SDS011;55019;49.382;11.358;2023-06-04T03:23:33;0.82;;;0.45;;
68196;SDS011;55019;49.382;11.358;2023-06-04T03:26:00;0.55;;;0.50;;
68196;SDS011;55019;49.382;11.358;2023-06-04T03:28:27;0.95;;;0.50;;
68196;SDS011;55019;49.382;11.358;2023-06-04T03:30:53;0.73;;;0.68;;
68196;SDS011;55019;49.382;11.358;2023-06-04T03:33:21;1.05;;;0.50;;
68196;SDS011;55019;49.382;11.358;2023-06-04T03:35:47;1.33;;;0.70;;
68196;SDS011;55019;49.382;11.358;2023-06-04T03:38:13;1.10;;;0.57;;
68196;SDS011;55019;49.382;11.358;2023-06-04T03:43:07;2.05;;;0.65;;
68196;SDS011;55019;49.382;11.358;2023-06-04T03:45:33;1.98;;;1.00;;
68196;SDS011;55019;49.382;11.358;2023-06-04T03:47:58;1.83;;;0.70;;
68196;SDS011;55019;49.382;11.358;2023-06-04T03:50:26;3.67;;;0.70;;
68196;SDS011;55019;49.382;11.358;2023-06-04T03:52:53;2.22;;;0.63;;
68196;SDS011;55019;49.382;11.358;2023-06-04T03:55:19;1.65;;;0.70;;
68196;SDS011;55019;49.382;11.358;2023-06-04T03:57:47;1.23;;;0.50;;
68196;SDS011;55019;49.382;11.358;2023-06-04T04:00:14;1.60;;;0.88;;
68196;SDS011;55019;49.382;11.358;2023-06-04T04:02:40;1.30;;;0.63;;
68196;SDS011;55019;49.382;11.358;2023-06-04T04:05:08;0.60;;;0.40;;
68196;SDS011;55019;49.382;11.358;2023-06-04T04:07:35;1.00;;;0.68;;
68196;SDS011;55019;49.382;11.358;2023-06-04T04:10:01;1.10;;;0.55;;
68196;SDS011;55019;49.382;11.358;2023-06-04T04:14:55;2.28;;;0.90;;
68196;SDS011;55019;49.382;11.358;2023-06-04T04:17:22;1.48;;;0.75;;
68196;SDS011;55019;49.382;11.358;2023-06-04T04:19:48;1.40;;;0.63;;
68196;SDS011;55019;49.382;11.358;2023-06-04T04:22:14;1.05;;;0.50;;
68196;SDS011;55019;49.382;11.358;2023-06-04T04:24:43;1.17;;;0.63;;
68196;SDS011;55019;49.382;11.358;2023-06-04T04:27:09;1.85;;;0.75;;
68196;SDS011;55019;49.382;11.358;2023-06-04T04:29:39;1.45;;;0.60;;
68196;SDS011;55019;49.382;11.358;2023-06-04T04:32:08;1.13;;;0.80;;
68196;SDS011;55019;49.382;11.358;2023-06-04T04:34:49;0.82;;;0.80;;
68196;SDS011;55019;49.382;11.358;2023-06-04T04:37:19;0.82;;;0.60;;
68196;SDS011;55019;49.382;11.358;2023-06-04T04:39:47;1.55;;;0.55;;
68196;SDS011;55019;49.382;11.358;2023-06-04T04:42:18;1.73;;;1.15;;
68196;SDS011;55019;49.382;11.358;2023-06-04T04:44:44;1.42;;;0.60;;
68196;SDS011;55019;49.382;11.358;2023-06-04T04:47:14;0.98;;;0.50;;
68196;SDS011;55019;49.382;11.358;2023-06-04T04:49:40;1.73;;;0.50;;
68196;SDS011;55019;49.382;11.358;2023-06-04T04:52:06;1.50;;;0.70;;
68196;SDS011;55019;49.382;11.358;2023-06-04T04:54:32;1.73;;;0.63;;
68196;SDS011;55019;49.382;11.358;2023-06-04T04:56:58;0.98;;;0.52;;
68196;SDS011;55019;49.382;11.358;2023-06-04T04:59:23;1.05;;;0.70;;
68196;SDS011;55019;49.382;11.358;2023-06-04T05:01:49;1.52;;;0.77;;
68196;SDS011;55019;49.382;11.358;2023-06-04T05:04:15;1.25;;;0.55;;
68196;SDS011;55019;49.382;11.358;2023-06-04T05:06:41;1.65;;;0.55;;
68196;SDS011;55019;49.382;11.358;2023-06-04T05:09:07;1.20;;;0.63;;
68196;SDS011;55019;49.382;11.358;2023-06-04T05:11:33;1.30;;;0.52;;
68196;SDS011;55019;49.382;11.358;2023-06-04T05:13:59;2.40;;;0.73;;
68196;SDS011;55019;49.382;11.358;2023-06-04T05:16:26;1.80;;;0.70;;
68196;SDS011;55019;49.382;11.358;2023-06-04T05:18:54;1.90;;;0.68;;
68196;SDS011;55019;49.382;11.358;2023-06-04T05:21:24;1.05;;;0.65;;
68196;SDS011;55019;49.382;11.358;2023-06-04T05:23:57;1.23;;;0.70;;
68196;SDS011;55019;49.382;11.358;2023-06-04T05:26:27;2.33;;;0.70;;
68196;SDS011;55019;49.382;11.358;2023-06-04T05:28:56;1.00;;;0.60;;
68196;SDS011;55019;49.382;11.358;2023-06-04T05:31:24;1.52;;;0.90;;
68196;SDS011;55019;49.382;11.358;2023-06-04T05:33:55;1.90;;;0.80;;
68196;SDS011;55019;49.382;11.358;2023-06-04T05:36:26;1.17;;;0.70;;
68196;SDS011;55019;49.382;11.358;2023-06-04T05:38:56;0.70;;;0.52;;
68196;SDS011;55019;49.382;11.358;2023-06-04T05:41:32;1.15;;;0.85;;
68196;SDS011;55019;49.382;11.358;2023-06-04T05:44:00;1.67;;;0.65;;
68196;SDS011;55019;49.382;11.358;2023-06-04T05:46:27;2.17;;;1.02;;
68196;SDS011;55019;49.382;11.358;2023-06-04T05:48:53;0.88;;;0.60;;
68196;SDS011;55019;49.382;11.358;2023-06-04T05:53:46;1.42;;;0.57;;
68196;SDS011;55019;49.382;11.358;2023-06-04T05:56:12;0.85;;;0.57;;
68196;SDS011;55019;49.382;11.358;2023-06-04T05:58:39;3.65;;;1.00;;
68196;SDS011;55019;49.382;11.358;2023-06-04T06:01:06;1.88;;;0.65;;
68196;SDS011;55019;49.382;11.358;2023-06-04T06:03:33;1.50;;;0.60;;
68196;SDS011;55019;49.382;11.358;2023-06-04T06:05:58;1.42;;;0.60;;
68196;SDS011;55019;49.382;11.358;2023-06-04T06:08:26;1.23;;;0.60;;
68196;SDS011;55019;49.382;11.358;2023-06-04T06:10:52;1.38;;;0.88;;
68196;SDS011;55019;49.382;11.358;2023-06-04T06:13:18;1.02;;;0.70;;
68196;SDS011;55019;49.382;11.358;2023-06-04T06:15:45;1.10;;;0.68;;
68196;SDS011;55019;49.382;11.358;2023-06-04T06:18:13;1.63;;;0.60;;
68196;SDS011;55019;49.382;11.358;2023-06-04T06:20:39;1.52;;;0.90;;
68196;SDS011;55019;49.382;11.358;2023-06-04T06:23:07;1.23;;;0.60;;
68196;SDS011;55019;49.382;11.358;2023-06-04T06:25:35;1.15;;;0.80;;
68196;SDS011;55019;49.382;11.358;2023-06-04T06:28:09;1.17;;;0.70;;
68196;SDS011;55019;49.382;11.358;2023-06-04T06:30:36;1.63;;;0.90;;
68196;SDS011;55019;49.382;11.358;2023-06-04T06:33:02;1.80;;;0.90;;
68196;SDS011;55019;49.382;11.358;2023-06-04T06:35:28;1.42;;;0.73;;
68196;SDS011;55019;49.382;11.358;2023-06-04T06:37:53;1.13;;;0.63;;
68196;SDS011;55019;49.382;11.358;2023-06-04T06:40:19;1.67;;;0.85;;
68196;SDS011;55019;49.382;11.358;2023-06-04T06:42:49;4.32;;;0.95;;
68196;SDS011;55019;49.382;11.358;2023-06-04T06:45:17;3.05;;;0.90;;
68196;SDS011;55019;49.382;11.358;2023-06-04T06:47:45;2.35;;;0.73;;
68196;SDS011;55019;49.382;11.358;2023-06-04T06:50:10;0.75;;;0.70;;
68196;SDS011;55019;49.382;11.358;2023-06-04T06:52:36;1.48;;;0.77;;
68196;SDS011;55019;49.382;11.358;2023-06-04T06:55:05;1.95;;;0.93;;
68196;SDS011;55019;49.382;11.358;2023-06-04T06:57:32;1.00;;;0.70;;
68196;SDS011;55019;49.382;11.358;2023-06-04T07:00:00;1.42;;;0.90;;
68196;SDS011;55019;49.382;11.358;2023-06-04T07:02:26;2.70;;;0.70;;
68196;SDS011;55019;49.382;11.358;2023-06-04T07:04:52;1.63;;;1.10;;
68196;SDS011;55019;49.382;11.358;2023-06-04T07:07:17;1.70;;;0.77;;
68196;SDS011;55019;49.382;11.358;2023-06-04T07:09:43;1.52;;;0.90;;
68196;SDS011;55019;49.382;11.358;2023-06-04T07:12:09;1.95;;;0.93;;
68196;SDS011;55019;49.382;11.358;2023-06-04T07:14:35;2.28;;;0.80;;
68196;SDS011;55019;49.382;11.358;2023-06-04T07:17:01;1.15;;;0.80;;
68196;SDS011;55019;49.382;11.358;2023-06-04T07:19:26;2.15;;;1.08;;
68196;SDS011;55019;49.382;11.358;2023-06-04T07:21:53;3.90;;;1.05;;
68196;SDS011;55019;49.382;11.358;2023-06-04T07:24:21;3.35;;;0.98;;
68196;SDS011;55019;49.382;11.358;2023-06-04T07:26:47;2.53;;;0.80;;
68196;SDS011;55019;49.382;11.358;2023-06-04T07:29:13;0.98;;;0.90;;
68196;SDS011;55019;49.382;11.358;2023-06-04T07:31:40;1.30;;;1.00;;
68196;SDS011;55019;49.382;11.358;2023-06-04T07:34:06;1.35;;;0.80;;
68196;SDS011;55019;49.382;11.358;2023-06-04T07:36:34;2.17;;;0.80;;
68196;SDS011;55019;49.382;11.358;2023-06-04T07:39:00;3.30;;;1.02;;
68196;SDS011;55019;49.382;11.358;2023-06-04T07:41:26;1.17;;;0.95;;
68196;SDS011;55019;49.382;11.358;2023-06-04T07:43:52;1.00;;;0.70;;
68196;SDS011;55019;49.382;11.358;2023-06-04T07:46:17;1.17;;;1.00;;
68196;SDS011;55019;49.382;11.358;2023-06-04T07:48:46;1.75;;;0.80;;
68196;SDS011;55019;49.382;11.358;2023-06-04T07:51:12;1.13;;;0.93;;
68196;SDS011;55019;49.382;11.358;2023-06-04T07:53:38;1.88;;;1.10;;
68196;SDS011;55019;49.382;11.358;2023-06-04T07:56:05;1.10;;;0.80;;
68196;SDS011;55019;49.382;11.358;2023-06-04T07:58:31;1.88;;;1.02;;
68196;SDS011;55019;49.382;11.358;2023-06-04T08:00:57;2.28;;;1.10;;
68196;SDS011;55019;49.382;11.358;2023-06-04T08:03:22;1.88;;;1.00;;
68196;SDS011;55019;49.382;11.358;2023-06-04T08:05:48;2.92;;;1.30;;
68196;SDS011;55019;49.382;11.358;2023-06-04T08:08:14;1.58;;;0.80;;
68196;SDS011;55019;49.382;11.358;2023-06-04T08:10:40;1.75;;;1.05;;
68196;SDS011;55019;49.382;11.358;2023-06-04T08:13:06;1.95;;;0.93;;
68196;SDS011;55019;49.382;11.358;2023-06-04T08:15:31;2.10;;;0.95;;
68196;SDS011;55019;49.382;11.358;2023-06-04T08:18:17;2.38;;;0.85;;
68196;SDS011;55019;49.382;11.358;2023-06-04T08:20:57;1.80;;;0.90;;
68196;SDS011;55019;49.382;11.358;2023-06-04T08:23:37;1.23;;;0.93;;
68196;SDS011;55019;49.382;11.358;2023-06-04T08:28:55;3.15;;;1.35;;
68196;SDS011;55019;49.382;11.358;2023-06-04T08:31:23;1.52;;;1.00;;
68196;SDS011;55019;49.382;11.358;2023-06-04T08:34:04;2.45;;;1.25;;
68196;SDS011;55019;49.382;11.358;2023-06-04T08:36:31;1.35;;;1.00;;
68196;SDS011;55019;49.382;11.358;2023-06-04T08:39:00;1.45;;;1.20;;
68196;SDS011;55019;49.382;11.358;2023-06-04T08:44:14;1.42;;;1.08;;
68196;SDS011;55019;49.382;11.358;2023-06-04T08:46:41;1.63;;;1.20;;
68196;SDS011;55019;49.382;11.358;2023-06-04T08:49:09;2.30;;;1.05;;
68196;SDS011;55019;49.382;11.358;2023-06-04T08:51:37;1.45;;;1.15;;
68196;SDS011;55019;49.382;11.358;2023-06-04T08:54:05;1.95;;;1.40;;
68196;SDS011;55019;49.382;11.358;2023-06-04T08:56:35;2.15;;;0.90;;
68196;SDS011;55019;49.382;11.358;2023-06-04T08:59:05;2.28;;;1.10;;
68196;SDS011;55019;49.382;11.358;2023-06-04T09:04:40;2.15;;;1.00;;
68196;SDS011;55019;49.382;11.358;2023-06-04T09:07:07;1.73;;;1.35;;
68196;SDS011;55019;49.382;11.358;2023-06-04T09:09:37;2.22;;;1.10;;
68196;SDS011;55019;49.382;11.358;2023-06-04T09:12:05;1.13;;;1.05;;
68196;SDS011;55019;49.382;11.358;2023-06-04T09:14:35;2.10;;;1.10;;
68196;SDS011;55019;49.382;11.358;2023-06-04T09:17:01;2.00;;;1.17;;
68196;SDS011;55019;49.382;11.358;2023-06-04T09:19:27;1.70;;;1.45;;
68196;SDS011;55019;49.382;11.358;2023-06-04T09:21:54;1.70;;;1.50;;
68196;SDS011;55019;49.382;11.358;2023-06-04T09:24:24;1.55;;;1.20;;
68196;SDS011;55019;49.382;11.358;2023-06-04T09:27:09;1.58;;;1.20;;
68196;SDS011;55019;49.382;11.358;2023-06-04T09:29:37;1.42;;;1.17;;
68196;SDS011;55019;49.382;11.358;2023-06-04T09:32:03;2.28;;;1.25;;
68196;SDS011;55019;49.382;11.358;2023-06-04T09:34:29;1.75;;;1.00;;
68196;SDS011;55019;49.382;11.358;2023-06-04T09:36:55;2.42;;;1.02;;
68196;SDS011;55019;49.382;11.358;2023-06-04T09:39:22;2.65;;;1.60;;
68196;SDS011;55019;49.382;11.358;2023-06-04T09:42:00;2.30;;;1.10;;
68196;SDS011;55019;49.382;11.358;2023-06-04T09:44:28;1.55;;;1.20;;
68196;SDS011;55019;49.382;11.358;2023-06-04T09:46:57;2.45;;;1.30;;
68196;SDS011;55019;49.382;11.358;2023-06-04T09:49:24;1.77;;;1.35;;
68196;SDS011;55019;49.382;11.358;2023-06-04T09:51:50;2.20;;;1.25;;
68196;SDS011;55019;49.382;11.358;2023-06-04T09:54:16;2.17;;;1.25;;
68196;SDS011;55019;49.382;11.358;2023-06-04T09:56:42;2.90;;;1.42;;
68196;SDS011;55019;49.382;11.358;2023-06-04T09:59:08;2.05;;;1.30;;
68196;SDS011;55019;49.382;11.358;2023-06-04T10:01:36;1.35;;;1.15;;
68196;SDS011;55019;49.382;11.358;2023-06-04T10:04:05;1.48;;;1.30;;
68196;SDS011;55019;49.382;11.358;2023-06-04T10:06:33;1.25;;;1.15;;
68196;SDS011;55019;49.382;11.358;2023-06-04T10:09:07;3.75;;;1.40;;
68196;SDS011;55019;49.382;11.358;2023-06-04T10:11:35;1.52;;;1.20;;
68196;SDS011;55019;49.382;11.358;2023-06-04T10:14:06;3.15;;;2.17;;
68196;SDS011;55019;49.382;11.358;2023-06-04T10:16:33;2.08;;;1.42;;
68196;SDS011;55019;49.382;11.358;2023-06-04T10:19:04;1.70;;;1.25;;
68196;SDS011;55019;49.382;11.358;2023-06-04T10:21:30;1.88;;;1.40;;
68196;SDS011;55019;49.382;11.358;2023-06-04T10:24:00;2.47;;;1.20;;
68196;SDS011;55019;49.382;11.358;2023-06-04T10:26:26;1.95;;;1.30;;
68196;SDS011;55019;49.382;11.358;2023-06-04T10:28:52;1.70;;;1.13;;
68196;SDS011;55019;49.382;11.358;2023-06-04T10:31:18;1.50;;;1.23;;
68196;SDS011;55019;49.382;11.358;2023-06-04T10:33:44;1.30;;;1.20;;
68196;SDS011;55019;49.382;11.358;2023-06-04T10:36:17;2.60;;;1.20;;
68196;SDS011;55019;49.382;11.358;2023-06-04T10:38:45;2.47;;;1.40;;
68196;SDS011;55019;49.382;11.358;2023-06-04T10:41:15;1.48;;;1.13;;
68196;SDS011;55019;49.382;11.358;2023-06-04T10:43:43;2.20;;;1.15;;
68196;SDS011;55019;49.382;11.358;2023-06-04T10:46:13;1.88;;;1.15;;
68196;SDS011;55019;49.382;11.358;2023-06-04T10:48:46;1.40;;;1.25;;
68196;SDS011;55019;49.382;11.358;2023-06-04T10:51:37;4.80;;;1.40;;
68196;SDS011;55019;49.382;11.358;2023-06-04T10:54:02;2.45;;;1.33;;
68196;SDS011;55019;49.382;11.358;2023-06-04T10:56:29;2.60;;;1.45;;
68196;SDS011;55019;49.382;11.358;2023-06-04T10:58:57;1.27;;;1.10;;
68196;SDS011;55019;49.382;11.358;2023-06-04T11:01:26;1.75;;;1.30;;
68196;SDS011;55019;49.382;11.358;2023-06-04T11:03:54;2.45;;;1.20;;
68196;SDS011;55019;49.382;11.358;2023-06-04T11:06:21;3.08;;;1.48;;
68196;SDS011;55019;49.382;11.358;2023-06-04T11:08:47;1.55;;;1.30;;
68196;SDS011;55019;49.382;11.358;2023-06-04T11:11:15;5.10;;;1.52;;
68196;SDS011;55019;49.382;11.358;2023-06-04T11:13:41;2.03;;;1.48;;
68196;SDS011;55019;49.382;11.358;2023-06-04T11:16:18;1.35;;;1.25;;
68196;SDS011;55019;49.382;11.358;2023-06-04T11:18:55;1.88;;;1.48;;
68196;SDS011;55019;49.382;11.358;2023-06-04T11:21:22;1.83;;;1.30;;
68196;SDS011;55019;49.382;11.358;2023-06-04T11:23:48;1.83;;;1.40;;
68196;SDS011;55019;49.382;11.358;2023-06-04T11:26:14;2.25;;;1.52;;
68196;SDS011;55019;49.382;11.358;2023-06-04T11:28:39;1.38;;;1.27;;
68196;SDS011;55019;49.382;11.358;2023-06-04T11:31:06;1.60;;;1.50;;
68196;SDS011;55019;49.382;11.358;2023-06-04T11:33:43;2.42;;;1.20;;
68196;SDS011;55019;49.382;11.358;2023-06-04T11:36:11;1.67;;;1.50;;
68196;SDS011;55019;49.382;11.358;2023-06-04T11:39:00;2.67;;;1.42;;
68196;SDS011;55019;49.382;11.358;2023-06-04T11:41:33;1.45;;;1.30;;
68196;SDS011;55019;49.382;11.358;2023-06-04T11:44:04;1.63;;;1.25;;
68196;SDS011;55019;49.382;11.358;2023-06-04T11:46:41;2.03;;;1.38;;
68196;SDS011;55019;49.382;11.358;2023-06-04T11:49:17;2.78;;;1.40;;
68196;SDS011;55019;49.382;11.358;2023-06-04T11:54:13;2.05;;;1.33;;
68196;SDS011;55019;49.382;11.358;2023-06-04T11:56:41;2.35;;;1.30;;
68196;SDS011;55019;49.382;11.358;2023-06-04T11:59:15;1.70;;;1.33;;
68196;SDS011;55019;49.382;11.358;2023-06-04T12:01:44;2.05;;;1.85;;
68196;SDS011;55019;49.382;11.358;2023-06-04T12:04:15;1.60;;;1.45;;
68196;SDS011;55019;49.382;11.358;2023-06-04T12:06:54;2.75;;;1.33;;
68196;SDS011;55019;49.382;11.358;2023-06-04T12:09:26;1.70;;;1.60;;
68196;SDS011;55019;49.382;11.358;2023-06-04T12:12:00;2.38;;;1.50;;
68196;SDS011;55019;49.382;11.358;2023-06-04T12:14:28;1.33;;;1.23;;
68196;SDS011;55019;49.382;11.358;2023-06-04T12:16:58;2.20;;;1.40;;
68196;SDS011;55019;49.382;11.358;2023-06-04T12:19:28;1.58;;;1.48;;
68196;SDS011;55019;49.382;11.358;2023-06-04T12:22:02;2.72;;;1.80;;
68196;SDS011;55019;49.382;11.358;2023-06-04T12:24:30;1.83;;;1.63;;
68196;SDS011;55019;49.382;11.358;2023-06-04T12:27:01;2.15;;;1.58;;
68196;SDS011;55019;49.382;11.358;2023-06-04T12:29:27;2.47;;;1.50;;
68196;SDS011;55019;49.382;11.358;2023-06-04T12:32:01;2.10;;;1.33;;
68196;SDS011;55019;49.382;11.358;2023-06-04T12:34:28;2.10;;;1.90;;
68196;SDS011;55019;49.382;11.358;2023-06-04T12:36:54;1.90;;;1.70;;
68196;SDS011;55019;49.382;11.358;2023-06-04T12:39:20;2.10;;;1.63;;
68196;SDS011;55019;49.382;11.358;2023-06-04T12:41:46;1.85;;;1.17;;
68196;SDS011;55019;49.382;11.358;2023-06-04T12:44:12;2.00;;;1.23;;
68196;SDS011;55019;49.382;11.358;2023-06-04T12:46:37;2.08;;;1.25;;
68196;SDS011;55019;49.382;11.358;2023-06-04T12:49:03;2.28;;;1.33;;
68196;SDS011;55019;49.382;11.358;2023-06-04T12:51:29;1.73;;;1.30;;
68196;SDS011;55019;49.382;11.358;2023-06-04T12:54:36;1.85;;;1.30;;
68196;SDS011;55019;49.382;11.358;2023-06-04T13:00:09;2.22;;;1.75;;
68196;SDS011;55019;49.382;11.358;2023-06-04T13:05:54;4.00;;;1.23;;
68196;SDS011;55019;49.382;11.358;2023-06-04T13:11:50;2.90;;;1.73;;
68196;SDS011;55019;49.382;11.358;2023-06-04T13:14:45;2.95;;;1.50;;
68196;SDS011;55019;49.382;11.358;2023-06-04T13:17:11;4.00;;;1.40;;
68196;SDS011;55019;49.382;11.358;2023-06-04T13:22:10;1.67;;;1.33;;
68196;SDS011;55019;49.382;11.358;2023-06-04T13:24:45;2.33;;;1.35;;
68196;SDS011;55019;49.382;11.358;2023-06-04T13:27:10;1.95;;;1.67;;
68196;SDS011;55019;49.382;11.358;2023-06-04T13:29:36;2.20;;;1.83;;
68196;SDS011;55019;49.382;11.358;2023-06-04T13:32:02;1.77;;;1.40;;
68196;SDS011;55019;49.382;11.358;2023-06-04T13:37:23;1.60;;;1.35;;
68196;SDS011;55019;49.382;11.358;2023-06-04T13:40:50;2.40;;;1.50;;
68196;SDS011;55019;49.382;11.358;2023-06-04T13:46:10;1.48;;;1.30;;
68196;SDS011;55019;49.382;11.358;2023-06-04T13:48:36;3.67;;;2.15;;
68196;SDS011;55019;49.382;11.358;2023-06-04T13:51:02;1.50;;;1.40;;
68196;SDS011;55019;49.382;11.358;2023-06-04T13:53:28;2.42;;;1.40;;
68196;SDS011;55019;49.382;11.358;2023-06-04T13:55:54;2.17;;;1.88;;
68196;SDS011;55019;49.382;11.358;2023-06-04T13:58:24;2.13;;;1.60;;
68196;SDS011;55019;49.382;11.358;2023-06-04T14:00:51;2.17;;;1.88;;
68196;SDS011;55019;49.382;11.358;2023-06-04T14:03:23;2.70;;;1.92;;
68196;SDS011;55019;49.382;11.358;2023-06-04T14:05:55;3.47;;;1.77;;
68196;SDS011;55019;49.382;11.358;2023-06-04T14:08:21;3.03;;;1.73;;
68196;SDS011;55019;49.382;11.358;2023-06-04T14:10:50;1.92;;;1.70;;
68196;SDS011;55019;49.382;11.358;2023-06-04T14:13:23;1.73;;;1.55;;
68196;SDS011;55019;49.382;11.358;2023-06-04T14:18:42;2.25;;;1.60;;
68196;SDS011;55019;49.382;11.358;2023-06-04T14:21:08;2.97;;;1.83;;
68196;SDS011;55019;49.382;11.358;2023-06-04T14:23:36;1.70;;;1.17;;
68196;SDS011;55019;49.382;11.358;2023-06-04T14:26:01;2.15;;;1.80;;
68196;SDS011;55019;49.382;11.358;2023-06-04T14:28:30;2.05;;;1.60;;
68196;SDS011;55019;49.382;11.358;2023-06-04T14:30:57;2.83;;;1.60;;
68196;SDS011;55019;49.382;11.358;2023-06-04T14:41:10;2.67;;;1.92;;
68196;SDS011;55019;49.382;11.358;2023-06-04T14:43:36;2.25;;;1.25;;
68196;SDS011;55019;49.382;11.358;2023-06-04T14:46:02;2.42;;;1.60;;
68196;SDS011;55019;49.382;11.358;2023-06-04T14:48:28;5.60;;;3.72;;
68196;SDS011;55019;49.382;11.358;2023-06-04T14:50:54;2.03;;;1.45;;
68196;SDS011;55019;49.382;11.358;2023-06-04T14:53:21;2.10;;;1.50;;
68196;SDS011;55019;49.382;11.358;2023-06-04T14:55:47;2.97;;;2.05;;
68196;SDS011;55019;49.382;11.358;2023-06-04T14:58:21;2.28;;;1.65;;
68196;SDS011;55019;49.382;11.358;2023-06-04T15:04:04;3.20;;;1.67;;
68196;SDS011;55019;49.382;11.358;2023-06-04T15:06:30;1.63;;;1.40;;
68196;SDS011;55019;49.382;11.358;2023-06-04T15:08:58;2.70;;;1.52;;
68196;SDS011;55019;49.382;11.358;2023-06-04T15:11:59;2.35;;;1.30;;
68196;SDS011;55019;49.382;11.358;2023-06-04T15:14:25;2.22;;;1.30;;
68196;SDS011;55019;49.382;11.358;2023-06-04T15:16:51;3.05;;;1.70;;
68196;SDS011;55019;49.382;11.358;2023-06-04T15:19:17;1.65;;;1.40;;
68196;SDS011;55019;49.382;11.358;2023-06-04T15:21:42;3.35;;;2.42;;
68196;SDS011;55019;49.382;11.358;2023-06-04T15:24:09;1.98;;;1.67;;
68196;SDS011;55019;49.382;11.358;2023-06-04T15:26:45;2.92;;;1.77;;
68196;SDS011;55019;49.382;11.358;2023-06-04T15:30:40;2.78;;;1.75;;
68196;SDS011;55019;49.382;11.358;2023-06-04T15:34:13;2.58;;;1.63;;
68196;SDS011;55019;49.382;11.358;2023-06-04T15:37:26;2.10;;;1.90;;
68196;SDS011;55019;49.382;11.358;2023-06-04T15:40:01;2.05;;;1.27;;